createdAt,value
2019-03-24T00:05:17.291Z,1013.61
2019-03-24T00:11:16.559Z,1013.56
2019-03-24T00:17:16.262Z,1013.58
2019-03-24T00:23:16.262Z,1013.48
2019-03-24T00:29:16.287Z,1013.45
2019-03-24T00:35:16.243Z,1013.40
2019-03-24T00:41:16.260Z,1013.39
2019-03-24T00:47:16.285Z,1013.34
2019-03-24T00:53:16.332Z,1013.32
2019-03-24T00:59:16.388Z,1013.29
2019-03-24T01:08:15.242Z,1013.13
2019-03-24T01:14:15.247Z,1013.14
2019-03-24T01:20:15.546Z,1013.07
2019-03-24T01:26:15.232Z,1012.86
2019-03-24T01:32:15.298Z,1012.85
2019-03-24T01:38:14.766Z,1012.76
2019-03-24T01:48:55.332Z,1012.82
2019-03-24T01:54:55.323Z,1012.80
2019-03-24T02:00:55.321Z,1012.72
2019-03-24T02:06:55.348Z,1012.76
2019-03-24T02:12:55.399Z,1012.66
2019-03-24T02:18:55.353Z,1012.56
2019-03-24T02:24:55.358Z,1012.57
2019-03-24T02:30:55.349Z,1012.62
2019-03-24T02:36:55.386Z,1012.55
2019-03-24T02:42:55.401Z,1012.60
2019-03-24T02:48:55.384Z,1012.64
2019-03-24T02:54:55.381Z,1012.53
2019-03-24T03:00:58.431Z,1012.59
2019-03-24T03:06:55.392Z,1012.58
2019-03-24T03:12:55.358Z,1012.49
2019-03-24T03:18:55.350Z,1012.57
2019-03-24T03:24:55.392Z,1012.51
2019-03-24T03:30:55.383Z,1012.51
2019-03-24T03:36:55.368Z,1012.51
2019-03-24T03:42:55.374Z,1012.36
2019-03-24T03:48:55.366Z,1012.35
2019-03-24T03:54:55.392Z,1012.29
2019-03-24T04:00:55.343Z,1012.24
2019-03-24T04:06:55.374Z,1012.27
2019-03-24T04:12:55.381Z,1012.23
2019-03-24T04:18:55.357Z,1012.19
2019-03-24T04:24:55.385Z,1012.19
2019-03-24T04:30:55.367Z,1012.26
2019-03-24T04:36:55.368Z,1012.21
2019-03-24T04:42:55.377Z,1012.19
2019-03-24T04:48:55.368Z,1012.25
2019-03-24T04:54:55.388Z,1012.19
2019-03-24T05:00:56.092Z,1012.22
2019-03-24T05:06:55.424Z,1012.28
2019-03-24T05:12:55.375Z,1012.35
2019-03-24T05:18:55.387Z,1012.43
2019-03-24T05:24:55.400Z,1012.32
2019-03-24T05:30:55.383Z,1012.33
2019-03-24T05:36:55.412Z,1012.37
2019-03-24T05:42:55.461Z,1012.24
2019-03-24T05:48:55.432Z,1012.24
2019-03-24T05:54:55.433Z,1012.31
2019-03-24T06:00:55.401Z,1012.26
2019-03-24T06:06:55.402Z,1012.33
2019-03-24T06:12:55.394Z,1012.24
2019-03-24T06:18:55.382Z,1012.35
2019-03-24T06:24:55.421Z,1012.34
2019-03-24T06:30:55.418Z,1012.37
2019-03-24T06:36:55.415Z,1012.37
2019-03-24T06:42:55.382Z,1012.30
2019-03-24T06:48:55.435Z,1012.17
2019-03-24T06:54:55.516Z,1012.16
2019-03-24T07:00:55.409Z,1012.18
2019-03-24T07:06:55.417Z,1012.22
2019-03-24T07:12:55.430Z,1012.35
2019-03-24T07:18:55.447Z,1012.34
2019-03-24T07:24:55.529Z,1012.44
2019-03-24T07:30:55.420Z,1012.48
2019-03-24T07:36:55.472Z,1012.49
2019-03-24T07:42:55.437Z,1012.43
2019-03-24T07:48:55.476Z,1012.36
2019-03-24T07:54:55.429Z,1012.37
2019-03-24T08:00:55.434Z,1012.36
2019-03-24T08:06:55.495Z,1012.34
2019-03-24T08:12:55.665Z,1012.32
2019-03-24T08:18:55.467Z,1012.23
2019-03-24T08:24:55.484Z,1012.19
2019-03-24T08:30:55.538Z,1012.19
2019-03-24T08:36:55.519Z,1012.17
2019-03-24T08:42:55.451Z,1012.05
2019-03-24T08:48:55.512Z,1012.03
2019-03-24T08:54:55.498Z,1012.06
2019-03-24T09:00:55.593Z,1011.94
2019-03-24T09:06:55.491Z,1011.93
2019-03-24T09:12:55.624Z,1011.87
2019-03-24T09:18:55.486Z,1011.86
2019-03-24T09:24:55.515Z,1011.86
2019-03-24T09:30:55.503Z,1011.79
2019-03-24T09:36:55.479Z,1011.76
2019-03-24T09:42:55.478Z,1011.74
2019-03-24T09:49:03.151Z,1011.74
2019-03-24T09:54:55.495Z,1011.51
2019-03-24T10:00:55.543Z,1011.64
2019-03-24T10:06:55.655Z,1011.45
2019-03-24T10:12:55.611Z,1011.44
2019-03-24T10:18:55.669Z,1011.41
2019-03-24T10:24:55.568Z,1011.43
2019-03-24T10:30:55.642Z,1011.24
2019-03-24T10:36:55.565Z,1011.31
2019-03-24T10:42:55.627Z,1011.23
2019-03-24T10:48:55.536Z,1011.28
2019-03-24T10:54:55.542Z,1011.26
2019-03-24T11:00:55.620Z,1011.35
2019-03-24T11:06:55.644Z,1011.20
2019-03-24T11:12:55.619Z,1011.09
2019-03-24T11:18:55.573Z,1011.09
2019-03-24T11:24:55.599Z,1011.15
2019-03-24T11:30:55.617Z,1011.17
2019-03-24T11:36:55.578Z,1011.08
2019-03-24T11:42:56.252Z,1011.19
2019-03-24T11:48:55.590Z,1011.06
2019-03-24T11:54:55.594Z,1010.88
2019-03-24T12:00:55.604Z,1010.67
2019-03-24T12:06:55.664Z,1010.70
2019-03-24T12:12:56.431Z,1010.60
2019-03-24T12:18:55.608Z,1010.55
2019-03-24T12:24:55.617Z,1010.43
2019-03-24T12:30:55.617Z,1010.43
2019-03-24T12:36:55.618Z,1010.45
2019-03-24T12:42:55.666Z,1010.41
2019-03-24T12:48:55.678Z,1010.29
2019-03-24T12:59:53.261Z,1010.14
2019-03-24T13:05:53.183Z,1010.21
2019-03-24T13:11:53.487Z,1010.04
2019-03-24T13:17:53.194Z,1010.05
2019-03-24T13:23:53.217Z,1009.92
2019-03-24T13:29:53.203Z,1009.91
2019-03-24T13:35:53.186Z,1009.96
2019-03-24T13:41:53.254Z,1009.93
2019-03-24T13:47:53.240Z,1009.90
2019-03-24T13:53:53.337Z,1009.89
2019-03-24T13:59:53.281Z,1009.79
2019-03-24T14:05:53.243Z,1009.68
2019-03-24T14:11:53.302Z,1009.76
2019-03-24T14:17:53.241Z,1009.71
2019-03-24T14:23:53.358Z,1009.76
2019-03-24T14:29:53.293Z,1009.71
2019-03-24T14:35:54.373Z,1009.66
2019-03-24T14:41:53.314Z,1009.73
2019-03-24T14:47:53.266Z,1009.69
2019-03-24T14:53:53.360Z,1009.79
2019-03-24T14:59:53.374Z,1009.72
2019-03-24T15:05:53.269Z,1009.71
2019-03-24T15:11:53.360Z,1009.69
2019-03-24T15:17:53.390Z,1009.75
2019-03-24T15:23:53.294Z,1009.65
2019-03-24T15:29:53.342Z,1009.70
2019-03-24T15:35:53.319Z,1009.71
2019-03-24T15:41:53.342Z,1009.74
2019-03-24T15:47:53.326Z,1009.71
2019-03-24T15:53:53.429Z,1009.71
2019-03-24T15:59:53.389Z,1009.77
2019-03-24T16:05:53.349Z,1009.73
2019-03-24T16:11:53.373Z,1009.78
2019-03-24T16:17:53.369Z,1009.78
2019-03-24T16:23:54.678Z,1009.87
2019-03-24T16:29:53.339Z,1009.81
2019-03-24T16:35:53.409Z,1009.89
2019-03-24T16:41:53.417Z,1009.85
2019-03-24T16:47:53.368Z,1009.79
2019-03-24T16:53:53.360Z,1009.88
2019-03-24T16:59:53.370Z,1009.93
2019-03-24T17:05:53.372Z,1009.94
2019-03-24T17:11:53.390Z,1009.95
2019-03-24T17:17:53.392Z,1009.95
2019-03-24T17:23:53.483Z,1009.97
2019-03-24T17:29:53.355Z,1009.97
2019-03-24T17:35:53.501Z,1010.03
2019-03-24T17:41:53.402Z,1010.08
2019-03-24T17:47:53.391Z,1010.18
2019-03-24T17:53:54.457Z,1010.13
2019-03-24T17:59:53.444Z,1010.23
2019-03-24T18:05:54.495Z,1010.30
2019-03-24T18:11:53.403Z,1010.33
2019-03-24T18:17:53.470Z,1010.33
2019-03-24T18:23:53.403Z,1010.35
2019-03-24T18:29:53.453Z,1010.51
2019-03-24T18:35:53.596Z,1010.54
2019-03-24T18:41:53.546Z,1010.51
2019-03-24T18:47:53.707Z,1010.37
2019-03-24T18:53:53.445Z,1010.43
2019-03-24T18:59:53.575Z,1010.45
2019-03-24T19:05:53.458Z,1010.49
2019-03-24T19:11:53.440Z,1010.35
2019-03-24T19:17:53.476Z,1010.40
2019-03-24T19:23:55.953Z,1010.37
2019-03-24T19:29:54.914Z,1010.44
2019-03-24T19:35:53.538Z,1010.43
2019-03-24T19:41:53.465Z,1010.46
2019-03-24T19:47:53.495Z,1010.47
2019-03-24T19:53:53.494Z,1010.43
2019-03-24T19:59:53.587Z,1010.41
2019-03-24T20:05:53.522Z,1010.32
2019-03-24T20:11:53.642Z,1010.40
2019-03-24T20:17:53.585Z,1010.45
2019-03-24T20:23:53.506Z,1010.46
2019-03-24T20:29:53.744Z,1010.46
2019-03-24T20:35:53.578Z,1010.57
2019-03-24T20:41:53.473Z,1010.56
2019-03-24T20:47:53.705Z,1010.60
2019-03-24T20:53:53.761Z,1010.57
2019-03-24T20:59:53.551Z,1010.53
2019-03-24T21:05:53.949Z,1010.62
2019-03-24T21:11:54.169Z,1010.63
2019-03-24T21:17:53.815Z,1010.51
2019-03-24T21:23:53.558Z,1010.57
2019-03-24T21:29:53.618Z,1010.48
2019-03-24T21:35:53.562Z,1010.50
2019-03-24T21:41:55.068Z,1010.47
2019-03-24T21:47:53.774Z,1010.45
2019-03-24T21:53:55.067Z,1010.33
2019-03-24T21:59:53.690Z,1010.40
2019-03-24T22:05:53.556Z,1010.26
2019-03-24T22:11:53.610Z,1010.35
2019-03-24T22:17:53.585Z,1010.32
2019-03-24T22:23:53.615Z,1010.38
2019-03-24T22:29:53.615Z,1010.36
2019-03-24T22:35:53.699Z,1010.34
2019-03-24T22:41:53.663Z,1010.29
2019-03-24T22:47:53.704Z,1010.23
2019-03-24T22:54:02.954Z,1010.25
2019-03-24T22:59:53.698Z,1010.28
2019-03-24T23:05:53.564Z,1010.22
2019-03-24T23:11:55.140Z,1010.18
2019-03-24T23:17:53.643Z,1010.14
2019-03-24T23:23:53.629Z,1010.23
2019-03-24T23:29:53.636Z,1010.10
2019-03-24T23:35:53.618Z,1010.12
2019-03-24T23:41:53.622Z,1010.17
2019-03-24T23:47:53.740Z,1010.13
2019-03-24T23:53:54.982Z,1010.02
2019-03-24T23:59:53.617Z,1010.01
